sensor_id;sensor_type;location;lat;lon;timestamp;temperature;humidity
43999;DHT22;51319;52.162;5.302;2023-03-24T00:01:52;11.30;99.90
43999;DHT22;51319;52.162;5.302;2023-03-24T00:04:19;11.30;99.90
43999;DHT22;51319;52.162;5.302;2023-03-24T00:06:47;11.30;99.90
43999;DHT22;51319;52.162;5.302;2023-03-24T00:09:15;11.30;99.90
43999;DHT22;51319;52.162;5.302;2023-03-24T00:11:42;11.30;99.90
43999;DHT22;51319;52.162;5.302;2023-03-24T00:14:10;11.30;99.90
43999;DHT22;51319;52.162;5.302;2023-03-24T00:16:40;11.30;99.90
43999;DHT22;51319;52.162;5.302;2023-03-24T00:19:09;11.30;99.90
43999;DHT22;51319;52.162;5.302;2023-03-24T00:21:36;11.30;99.90
43999;DHT22;51319;52.162;5.302;2023-03-24T00:24:04;11.30;99.90
43999;DHT22;51319;52.162;5.302;2023-03-24T00:26:35;11.30;99.90
43999;DHT22;51319;52.162;5.302;2023-03-24T00:29:07;11.30;99.90
43999;DHT22;51319;52.162;5.302;2023-03-24T00:31:34;11.30;99.90
43999;DHT22;51319;52.162;5.302;2023-03-24T00:34:07;11.30;99.90
43999;DHT22;51319;52.162;5.302;2023-03-24T00:36:35;11.30;99.90
43999;DHT22;51319;52.162;5.302;2023-03-24T00:39:03;11.30;99.90
43999;DHT22;51319;52.162;5.302;2023-03-24T00:41:32;11.30;99.90
43999;DHT22;51319;52.162;5.302;2023-03-24T00:44:00;11.30;99.90
43999;DHT22;51319;52.162;5.302;2023-03-24T00:46:29;11.30;99.90
43999;DHT22;51319;52.162;5.302;2023-03-24T00:49:02;11.40;99.90
43999;DHT22;51319;52.162;5.302;2023-03-24T00:51:41;11.30;99.90
43999;DHT22;51319;52.162;5.302;2023-03-24T00:54:10;11.30;99.90
43999;DHT22;51319;52.162;5.302;2023-03-24T00:56:39;11.40;99.90
43999;DHT22;51319;52.162;5.302;2023-03-24T00:59:06;11.40;99.90
43999;DHT22;51319;52.162;5.302;2023-03-24T01:01:36;11.40;99.90
43999;DHT22;51319;52.162;5.302;2023-03-24T01:04:05;11.40;99.90
43999;DHT22;51319;52.162;5.302;2023-03-24T01:06:35;11.40;99.90
43999;DHT22;51319;52.162;5.302;2023-03-24T01:09:03;11.40;99.90
43999;DHT22;51319;52.162;5.302;2023-03-24T01:11:36;11.40;99.90
43999;DHT22;51319;52.162;5.302;2023-03-24T01:14:05;11.40;99.90
43999;DHT22;51319;52.162;5.302;2023-03-24T01:16:32;11.40;99.90
43999;DHT22;51319;52.162;5.302;2023-03-24T01:18:59;11.50;99.90
43999;DHT22;51319;52.162;5.302;2023-03-24T01:21:26;11.50;99.90
43999;DHT22;51319;52.162;5.302;2023-03-24T01:23:53;11.50;99.90
43999;DHT22;51319;52.162;5.302;2023-03-24T01:26:20;11.50;99.90
43999;DHT22;51319;52.162;5.302;2023-03-24T01:28:47;11.50;99.90
43999;DHT22;51319;52.162;5.302;2023-03-24T01:31:13;11.50;99.90
43999;DHT22;51319;52.162;5.302;2023-03-24T01:33:40;11.50;99.90
43999;DHT22;51319;52.162;5.302;2023-03-24T01:36:07;11.50;99.90
43999;DHT22;51319;52.162;5.302;2023-03-24T01:38:35;11.50;99.90
43999;DHT22;51319;52.162;5.302;2023-03-24T01:41:04;11.50;99.90
43999;DHT22;51319;52.162;5.302;2023-03-24T01:43:33;11.50;99.90
43999;DHT22;51319;52.162;5.302;2023-03-24T01:46:20;11.50;99.90
43999;DHT22;51319;52.162;5.302;2023-03-24T01:49:06;11.50;99.90
43999;DHT22;51319;52.162;5.302;2023-03-24T01:51:37;11.50;99.90
43999;DHT22;51319;52.162;5.302;2023-03-24T01:56:43;11.50;99.90
43999;DHT22;51319;52.162;5.302;2023-03-24T01:59:16;11.50;99.90
43999;DHT22;51319;52.162;5.302;2023-03-24T02:01:44;11.50;99.90
43999;DHT22;51319;52.162;5.302;2023-03-24T02:04:11;11.60;99.90
43999;DHT22;51319;52.162;5.302;2023-03-24T02:06:41;11.60;99.90
43999;DHT22;51319;52.162;5.302;2023-03-24T02:09:11;11.60;99.90
43999;DHT22;51319;52.162;5.302;2023-03-24T02:11:39;11.60;99.90
43999;DHT22;51319;52.162;5.302;2023-03-24T02:14:06;11.60;99.90
43999;DHT22;51319;52.162;5.302;2023-03-24T02:16:40;11.60;99.90
43999;DHT22;51319;52.162;5.302;2023-03-24T02:22:58;11.60;99.90
43999;DHT22;51319;52.162;5.302;2023-03-24T02:31:05;11.60;99.90
43999;DHT22;51319;52.162;5.302;2023-03-24T02:59:05;11.10;99.90
43999;DHT22;51319;52.162;5.302;2023-03-24T03:01:46;11.10;99.90
43999;DHT22;51319;52.162;5.302;2023-03-24T03:04:30;11.00;99.90
43999;DHT22;51319;52.162;5.302;2023-03-24T03:07:04;10.90;99.90
43999;DHT22;51319;52.162;5.302;2023-03-24T03:09:38;10.80;99.90
43999;DHT22;51319;52.162;5.302;2023-03-24T03:12:09;10.70;99.90
43999;DHT22;51319;52.162;5.302;2023-03-24T03:14:44;10.70;99.90
43999;DHT22;51319;52.162;5.302;2023-03-24T03:17:21;10.60;99.90
43999;DHT22;51319;52.162;5.302;2023-03-24T03:19:57;10.50;99.90
43999;DHT22;51319;52.162;5.302;2023-03-24T03:22:41;10.50;99.90
43999;DHT22;51319;52.162;5.302;2023-03-24T03:25:12;10.50;99.90
43999;DHT22;51319;52.162;5.302;2023-03-24T03:27:43;10.50;99.90
43999;DHT22;51319;52.162;5.302;2023-03-24T03:30:23;10.50;99.90
43999;DHT22;51319;52.162;5.302;2023-03-24T03:32:55;10.40;99.90
43999;DHT22;51319;52.162;5.302;2023-03-24T03:38:05;10.30;99.90
43999;DHT22;51319;52.162;5.302;2023-03-24T03:40:40;10.20;99.90
43999;DHT22;51319;52.162;5.302;2023-03-24T03:43:08;10.20;99.90
43999;DHT22;51319;52.162;5.302;2023-03-24T03:45:35;10.10;99.90
43999;DHT22;51319;52.162;5.302;2023-03-24T03:48:03;10.10;99.90
43999;DHT22;51319;52.162;5.302;2023-03-24T03:50:30;10.10;99.90
43999;DHT22;51319;52.162;5.302;2023-03-24T03:52:57;10.10;99.90
43999;DHT22;51319;52.162;5.302;2023-03-24T03:55:24;10.10;99.90
43999;DHT22;51319;52.162;5.302;2023-03-24T03:57:52;10.10;99.90
43999;DHT22;51319;52.162;5.302;2023-03-24T04:00:19;10.10;99.90
43999;DHT22;51319;52.162;5.302;2023-03-24T04:03:09;10.10;99.90
43999;DHT22;51319;52.162;5.302;2023-03-24T04:11:24;10.00;99.90
43999;DHT22;51319;52.162;5.302;2023-03-24T04:22:17;10.00;99.90
43999;DHT22;51319;52.162;5.302;2023-03-24T04:24:54;9.90;99.90
43999;DHT22;51319;52.162;5.302;2023-03-24T04:35:41;10.00;99.90
43999;DHT22;51319;52.162;5.302;2023-03-24T04:38:13;10.00;99.90
43999;DHT22;51319;52.162;5.302;2023-03-24T04:40:44;10.00;99.90
43999;DHT22;51319;52.162;5.302;2023-03-24T04:43:14;10.00;99.90
43999;DHT22;51319;52.162;5.302;2023-03-24T04:45:43;10.00;99.90
43999;DHT22;51319;52.162;5.302;2023-03-24T04:48:17;10.00;99.90
43999;DHT22;51319;52.162;5.302;2023-03-24T04:50:57;10.00;99.90
43999;DHT22;51319;52.162;5.302;2023-03-24T04:53:26;10.00;99.90
43999;DHT22;51319;52.162;5.302;2023-03-24T04:56:04;10.00;99.90
43999;DHT22;51319;52.162;5.302;2023-03-24T04:58:33;10.00;99.90
43999;DHT22;51319;52.162;5.302;2023-03-24T05:00:59;10.00;99.90
43999;DHT22;51319;52.162;5.302;2023-03-24T05:03:26;10.00;99.90
43999;DHT22;51319;52.162;5.302;2023-03-24T05:05:53;10.00;99.90
43999;DHT22;51319;52.162;5.302;2023-03-24T05:08:20;10.00;99.90
43999;DHT22;51319;52.162;5.302;2023-03-24T05:10:47;10.00;99.90
43999;DHT22;51319;52.162;5.302;2023-03-24T05:13:14;10.00;99.90
43999;DHT22;51319;52.162;5.302;2023-03-24T05:15:41;10.00;99.90
43999;DHT22;51319;52.162;5.302;2023-03-24T05:18:09;10.00;99.90
43999;DHT22;51319;52.162;5.302;2023-03-24T05:20:36;10.00;99.90
43999;DHT22;51319;52.162;5.302;2023-03-24T05:23:02;10.00;99.90
43999;DHT22;51319;52.162;5.302;2023-03-24T05:25:29;9.90;99.90
43999;DHT22;51319;52.162;5.302;2023-03-24T05:27:56;9.90;99.90
43999;DHT22;51319;52.162;5.302;2023-03-24T05:30:23;9.80;99.90
43999;DHT22;51319;52.162;5.302;2023-03-24T05:32:50;9.80;99.90
43999;DHT22;51319;52.162;5.302;2023-03-24T05:35:17;9.70;99.90
43999;DHT22;51319;52.162;5.302;2023-03-24T05:37:44;9.70;99.90
43999;DHT22;51319;52.162;5.302;2023-03-24T05:40:11;9.60;99.90
43999;DHT22;51319;52.162;5.302;2023-03-24T05:42:38;9.60;99.90
43999;DHT22;51319;52.162;5.302;2023-03-24T05:45:05;9.60;99.90
43999;DHT22;51319;52.162;5.302;2023-03-24T05:47:32;9.60;99.90
43999;DHT22;51319;52.162;5.302;2023-03-24T05:49:59;9.60;99.90
43999;DHT22;51319;52.162;5.302;2023-03-24T05:52:26;9.60;99.90
43999;DHT22;51319;52.162;5.302;2023-03-24T05:54:54;9.60;99.90
43999;DHT22;51319;52.162;5.302;2023-03-24T05:57:21;9.60;99.90
43999;DHT22;51319;52.162;5.302;2023-03-24T05:59:48;9.60;99.90
43999;DHT22;51319;52.162;5.302;2023-03-24T06:02:18;9.60;99.90
43999;DHT22;51319;52.162;5.302;2023-03-24T06:04:44;9.70;99.90
43999;DHT22;51319;52.162;5.302;2023-03-24T06:07:15;9.70;99.90
43999;DHT22;51319;52.162;5.302;2023-03-24T06:09:42;9.80;99.90
43999;DHT22;51319;52.162;5.302;2023-03-24T06:12:13;9.80;99.90
43999;DHT22;51319;52.162;5.302;2023-03-24T06:14:41;9.80;99.90
43999;DHT22;51319;52.162;5.302;2023-03-24T06:17:08;9.90;99.90
43999;DHT22;51319;52.162;5.302;2023-03-24T06:19:41;9.90;99.90
43999;DHT22;51319;52.162;5.302;2023-03-24T06:22:16;9.90;99.90
43999;DHT22;51319;52.162;5.302;2023-03-24T06:24:44;9.90;99.90
43999;DHT22;51319;52.162;5.302;2023-03-24T06:27:11;9.90;99.90
43999;DHT22;51319;52.162;5.302;2023-03-24T06:29:40;9.90;99.90
43999;DHT22;51319;52.162;5.302;2023-03-24T06:32:09;10.00;99.90
43999;DHT22;51319;52.162;5.302;2023-03-24T06:34:36;10.00;99.90
43999;DHT22;51319;52.162;5.302;2023-03-24T06:37:04;10.00;99.90
43999;DHT22;51319;52.162;5.302;2023-03-24T06:39:31;10.00;99.90
43999;DHT22;51319;52.162;5.302;2023-03-24T06:41:58;10.00;99.90
43999;DHT22;51319;52.162;5.302;2023-03-24T06:44:25;10.00;99.90
43999;DHT22;51319;52.162;5.302;2023-03-24T06:46:52;10.10;99.90
43999;DHT22;51319;52.162;5.302;2023-03-24T06:49:19;10.10;99.90
43999;DHT22;51319;52.162;5.302;2023-03-24T06:51:46;10.20;99.90
43999;DHT22;51319;52.162;5.302;2023-03-24T06:54:13;10.20;99.90
43999;DHT22;51319;52.162;5.302;2023-03-24T06:56:39;10.30;99.90
43999;DHT22;51319;52.162;5.302;2023-03-24T06:59:07;10.30;99.90
43999;DHT22;51319;52.162;5.302;2023-03-24T07:01:34;10.30;99.90
43999;DHT22;51319;52.162;5.302;2023-03-24T07:04:02;10.40;99.90
43999;DHT22;51319;52.162;5.302;2023-03-24T07:06:29;10.40;99.90
43999;DHT22;51319;52.162;5.302;2023-03-24T07:08:56;10.50;99.90
43999;DHT22;51319;52.162;5.302;2023-03-24T07:11:23;10.50;99.90
43999;DHT22;51319;52.162;5.302;2023-03-24T07:13:50;10.70;99.90
43999;DHT22;51319;52.162;5.302;2023-03-24T07:16:17;10.80;99.90
43999;DHT22;51319;52.162;5.302;2023-03-24T07:18:44;11.00;99.90
43999;DHT22;51319;52.162;5.302;2023-03-24T07:21:11;11.10;99.90
43999;DHT22;51319;52.162;5.302;2023-03-24T07:23:38;11.20;99.90
43999;DHT22;51319;52.162;5.302;2023-03-24T07:26:05;11.20;99.90
43999;DHT22;51319;52.162;5.302;2023-03-24T07:28:32;11.10;99.90
43999;DHT22;51319;52.162;5.302;2023-03-24T07:31:02;11.10;99.90
43999;DHT22;51319;52.162;5.302;2023-03-24T07:33:30;11.00;99.90
43999;DHT22;51319;52.162;5.302;2023-03-24T07:35:57;11.10;99.90
43999;DHT22;51319;52.162;5.302;2023-03-24T07:38:25;11.10;99.90
43999;DHT22;51319;52.162;5.302;2023-03-24T07:40:52;11.30;99.90
43999;DHT22;51319;52.162;5.302;2023-03-24T07:43:19;11.60;99.90
43999;DHT22;51319;52.162;5.302;2023-03-24T07:45:47;11.80;99.90
43999;DHT22;51319;52.162;5.302;2023-03-24T07:48:14;12.00;99.90
43999;DHT22;51319;52.162;5.302;2023-03-24T07:50:42;12.20;99.90
43999;DHT22;51319;52.162;5.302;2023-03-24T07:53:09;12.50;99.90
43999;DHT22;51319;52.162;5.302;2023-03-24T07:55:37;12.60;99.90
43999;DHT22;51319;52.162;5.302;2023-03-24T07:58:04;12.40;99.90
43999;DHT22;51319;52.162;5.302;2023-03-24T08:00:31;12.30;99.90
43999;DHT22;51319;52.162;5.302;2023-03-24T08:02:59;12.80;99.90
43999;DHT22;51319;52.162;5.302;2023-03-24T08:05:28;13.20;99.90
43999;DHT22;51319;52.162;5.302;2023-03-24T08:07:56;13.30;99.90
43999;DHT22;51319;52.162;5.302;2023-03-24T08:10:26;13.20;99.90
43999;DHT22;51319;52.162;5.302;2023-03-24T08:12:54;12.90;99.90
43999;DHT22;51319;52.162;5.302;2023-03-24T08:15:22;13.10;99.90
43999;DHT22;51319;52.162;5.302;2023-03-24T08:17:49;13.60;99.90
43999;DHT22;51319;52.162;5.302;2023-03-24T08:20:18;13.50;99.90
43999;DHT22;51319;52.162;5.302;2023-03-24T08:22:48;14.00;99.90
43999;DHT22;51319;52.162;5.302;2023-03-24T08:25:21;14.60;99.90
43999;DHT22;51319;52.162;5.302;2023-03-24T08:27:48;14.90;99.50
43999;DHT22;51319;52.162;5.302;2023-03-24T08:30:18;14.40;99.50
43999;DHT22;51319;52.162;5.302;2023-03-24T08:32:50;14.50;99.90
43999;DHT22;51319;52.162;5.302;2023-03-24T08:35:20;14.80;99.90
43999;DHT22;51319;52.162;5.302;2023-03-24T08:37:48;14.40;98.10
43999;DHT22;51319;52.162;5.302;2023-03-24T08:40:17;13.90;98.60
43999;DHT22;51319;52.162;5.302;2023-03-24T08:42:46;13.60;99.10
43999;DHT22;51319;52.162;5.302;2023-03-24T08:45:14;13.30;99.90
43999;DHT22;51319;52.162;5.302;2023-03-24T08:47:41;13.70;99.90
43999;DHT22;51319;52.162;5.302;2023-03-24T08:50:09;14.00;99.90
43999;DHT22;51319;52.162;5.302;2023-03-24T08:52:36;16.30;99.90
43999;DHT22;51319;52.162;5.302;2023-03-24T08:55:03;16.60;96.40
43999;DHT22;51319;52.162;5.302;2023-03-24T08:57:30;15.90;95.80
43999;DHT22;51319;52.162;5.302;2023-03-24T08:59:57;16.00;96.30
43999;DHT22;51319;52.162;5.302;2023-03-24T09:02:24;16.20;95.30
43999;DHT22;51319;52.162;5.302;2023-03-24T09:04:51;16.30;95.40
43999;DHT22;51319;52.162;5.302;2023-03-24T09:07:20;16.80;94.50
43999;DHT22;51319;52.162;5.302;2023-03-24T09:09:48;16.60;93.30
43999;DHT22;51319;52.162;5.302;2023-03-24T09:12:15;16.90;93.30
43999;DHT22;51319;52.162;5.302;2023-03-24T09:14:47;18.10;92.90
43999;DHT22;51319;52.162;5.302;2023-03-24T09:17:14;18.60;89.50
43999;DHT22;51319;52.162;5.302;2023-03-24T09:19:41;17.30;90.70
43999;DHT22;51319;52.162;5.302;2023-03-24T09:22:09;16.70;92.40
43999;DHT22;51319;52.162;5.302;2023-03-24T09:24:36;18.60;91.50
43999;DHT22;51319;52.162;5.302;2023-03-24T09:27:03;20.30;88.50
43999;DHT22;51319;52.162;5.302;2023-03-24T09:29:29;21.60;81.30
43999;DHT22;51319;52.162;5.302;2023-03-24T09:31:57;22.50;80.30
43999;DHT22;51319;52.162;5.302;2023-03-24T09:34:24;22.60;78.70
43999;DHT22;51319;52.162;5.302;2023-03-24T09:36:51;22.50;76.10
43999;DHT22;51319;52.162;5.302;2023-03-24T09:39:18;21.10;76.70
43999;DHT22;51319;52.162;5.302;2023-03-24T09:41:45;19.40;79.60
43999;DHT22;51319;52.162;5.302;2023-03-24T09:44:33;18.10;82.60
43999;DHT22;51319;52.162;5.302;2023-03-24T09:49:42;17.20;89.70
43999;DHT22;51319;52.162;5.302;2023-03-24T09:52:12;17.60;91.40
43999;DHT22;51319;52.162;5.302;2023-03-24T09:57:21;16.70;89.70
43999;DHT22;51319;52.162;5.302;2023-03-24T09:59:48;17.10;88.80
43999;DHT22;51319;52.162;5.302;2023-03-24T10:02:18;16.80;90.80
43999;DHT22;51319;52.162;5.302;2023-03-24T10:04:45;16.70;90.30
43999;DHT22;51319;52.162;5.302;2023-03-24T10:07:15;16.30;90.40
43999;DHT22;51319;52.162;5.302;2023-03-24T10:09:49;18.00;92.10
43999;DHT22;51319;52.162;5.302;2023-03-24T10:15:25;21.90;82.00
43999;DHT22;51319;52.162;5.302;2023-03-24T10:21:14;23.00;74.30
43999;DHT22;51319;52.162;5.302;2023-03-24T10:24:05;22.10;75.10
43999;DHT22;51319;52.162;5.302;2023-03-24T10:27:17;23.90;78.10
43999;DHT22;51319;52.162;5.302;2023-03-24T10:29:47;25.20;73.00
43999;DHT22;51319;52.162;5.302;2023-03-24T10:32:18;25.20;69.30
43999;DHT22;51319;52.162;5.302;2023-03-24T10:34:53;25.80;66.40
43999;DHT22;51319;52.162;5.302;2023-03-24T10:37:21;26.30;67.30
43999;DHT22;51319;52.162;5.302;2023-03-24T10:39:49;26.80;65.50
43999;DHT22;51319;52.162;5.302;2023-03-24T10:42:24;27.10;63.80
43999;DHT22;51319;52.162;5.302;2023-03-24T10:44:51;26.50;60.80
43999;DHT22;51319;52.162;5.302;2023-03-24T10:47:25;27.00;64.10
43999;DHT22;51319;52.162;5.302;2023-03-24T10:50:05;27.50;61.00
43999;DHT22;51319;52.162;5.302;2023-03-24T10:52:42;27.20;60.40
43999;DHT22;51319;52.162;5.302;2023-03-24T10:55:16;26.70;58.20
43999;DHT22;51319;52.162;5.302;2023-03-24T10:57:49;27.00;62.10
43999;DHT22;51319;52.162;5.302;2023-03-24T11:00:24;26.70;58.80
43999;DHT22;51319;52.162;5.302;2023-03-24T11:03:04;24.70;59.50
43999;DHT22;51319;52.162;5.302;2023-03-24T11:05:35;23.00;61.70
43999;DHT22;51319;52.162;5.302;2023-03-24T11:10:48;23.30;68.60
43999;DHT22;51319;52.162;5.302;2023-03-24T11:13:17;24.00;64.40
43999;DHT22;51319;52.162;5.302;2023-03-24T11:19:04;22.70;61.40
43999;DHT22;51319;52.162;5.302;2023-03-24T11:21:35;21.30;66.30
43999;DHT22;51319;52.162;5.302;2023-03-24T11:24:10;20.20;66.50
43999;DHT22;51319;52.162;5.302;2023-03-24T11:26:39;19.30;69.30
43999;DHT22;51319;52.162;5.302;2023-03-24T11:29:23;18.80;73.20
43999;DHT22;51319;52.162;5.302;2023-03-24T11:31:53;18.30;79.30
43999;DHT22;51319;52.162;5.302;2023-03-24T11:34:29;18.30;80.90
43999;DHT22;51319;52.162;5.302;2023-03-24T11:37:06;18.00;78.90
43999;DHT22;51319;52.162;5.302;2023-03-24T11:39:36;17.30;79.90
43999;DHT22;51319;52.162;5.302;2023-03-24T11:49:48;17.70;82.10
43999;DHT22;51319;52.162;5.302;2023-03-24T11:52:28;18.50;77.50
43999;DHT22;51319;52.162;5.302;2023-03-24T11:54:57;17.90;78.20
43999;DHT22;51319;52.162;5.302;2023-03-24T11:57:38;17.40;79.00
43999;DHT22;51319;52.162;5.302;2023-03-24T12:00:36;16.80;78.40
43999;DHT22;51319;52.162;5.302;2023-03-24T12:03:09;16.40;79.90
43999;DHT22;51319;52.162;5.302;2023-03-24T12:08:50;16.40;82.10
43999;DHT22;51319;52.162;5.302;2023-03-24T12:11:50;17.30;83.00
43999;DHT22;51319;52.162;5.302;2023-03-24T12:17:13;17.50;79.10
43999;DHT22;51319;52.162;5.302;2023-03-24T12:20:41;17.40;79.60
43999;DHT22;51319;52.162;5.302;2023-03-24T12:34:03;17.30;76.30
43999;DHT22;51319;52.162;5.302;2023-03-24T12:39:31;16.50;77.30
43999;DHT22;51319;52.162;5.302;2023-03-24T12:42:16;16.60;76.90
43999;DHT22;51319;52.162;5.302;2023-03-24T12:51:29;17.40;76.10
43999;DHT22;51319;52.162;5.302;2023-03-24T12:57:26;18.10;75.90
43999;DHT22;51319;52.162;5.302;2023-03-24T12:59:58;20.10;73.20
43999;DHT22;51319;52.162;5.302;2023-03-24T13:03:17;21.60;68.10
43999;DHT22;51319;52.162;5.302;2023-03-24T13:05:49;23.00;65.30
43999;DHT22;51319;52.162;5.302;2023-03-24T13:08:23;23.90;63.10
43999;DHT22;51319;52.162;5.302;2023-03-24T13:11:03;24.30;59.80
43999;DHT22;51319;52.162;5.302;2023-03-24T13:13:36;24.40;59.00
43999;DHT22;51319;52.162;5.302;2023-03-24T13:16:20;23.60;55.10
43999;DHT22;51319;52.162;5.302;2023-03-24T13:18:56;23.90;55.30
43999;DHT22;51319;52.162;5.302;2023-03-24T13:21:25;24.60;54.90
43999;DHT22;51319;52.162;5.302;2023-03-24T13:37:36;23.20;53.20
43999;DHT22;51319;52.162;5.302;2023-03-24T13:40:10;22.10;54.00
43999;DHT22;51319;52.162;5.302;2023-03-24T13:42:48;21.00;56.00
43999;DHT22;51319;52.162;5.302;2023-03-24T13:48:14;20.20;57.80
43999;DHT22;51319;52.162;5.302;2023-03-24T13:50:51;19.70;58.60
43999;DHT22;51319;52.162;5.302;2023-03-24T13:53:34;19.80;59.40
43999;DHT22;51319;52.162;5.302;2023-03-24T13:56:03;20.50;58.40
43999;DHT22;51319;52.162;5.302;2023-03-24T13:58:46;19.80;58.00
43999;DHT22;51319;52.162;5.302;2023-03-24T14:04:42;18.20;61.40
43999;DHT22;51319;52.162;5.302;2023-03-24T14:10:26;16.70;71.90
43999;DHT22;51319;52.162;5.302;2023-03-24T14:19:43;15.60;76.00
43999;DHT22;51319;52.162;5.302;2023-03-24T14:22:29;15.70;76.90
43999;DHT22;51319;52.162;5.302;2023-03-24T14:25:00;16.30;75.30
43999;DHT22;51319;52.162;5.302;2023-03-24T14:27:36;16.60;75.50
43999;DHT22;51319;52.162;5.302;2023-03-24T14:32:43;17.00;71.40
43999;DHT22;51319;52.162;5.302;2023-03-24T14:35:43;17.10;71.50
43999;DHT22;51319;52.162;5.302;2023-03-24T14:40:48;16.40;70.30
43999;DHT22;51319;52.162;5.302;2023-03-24T14:46:44;16.00;71.60
43999;DHT22;51319;52.162;5.302;2023-03-24T14:49:17;16.00;72.00
43999;DHT22;51319;52.162;5.302;2023-03-24T14:51:59;15.80;72.40
43999;DHT22;51319;52.162;5.302;2023-03-24T14:54:36;15.40;72.10
43999;DHT22;51319;52.162;5.302;2023-03-24T14:57:04;15.20;74.00
43999;DHT22;51319;52.162;5.302;2023-03-24T15:08:12;14.90;74.00
43999;DHT22;51319;52.162;5.302;2023-03-24T15:10:52;14.80;74.00
43999;DHT22;51319;52.162;5.302;2023-03-24T15:15:59;14.80;74.80
43999;DHT22;51319;52.162;5.302;2023-03-24T15:18:30;14.90;74.70
43999;DHT22;51319;52.162;5.302;2023-03-24T15:20:59;15.00;73.80
43999;DHT22;51319;52.162;5.302;2023-03-24T15:23:27;14.80;73.40
43999;DHT22;51319;52.162;5.302;2023-03-24T15:25:57;14.70;73.40
43999;DHT22;51319;52.162;5.302;2023-03-24T15:28:28;14.70;74.00
43999;DHT22;51319;52.162;5.302;2023-03-24T15:30:57;14.80;73.70
43999;DHT22;51319;52.162;5.302;2023-03-24T15:33:27;14.80;73.60
43999;DHT22;51319;52.162;5.302;2023-03-24T15:35:58;14.90;73.60
43999;DHT22;51319;52.162;5.302;2023-03-24T15:38:30;15.00;73.00
43999;DHT22;51319;52.162;5.302;2023-03-24T15:41:03;15.00;72.20
43999;DHT22;51319;52.162;5.302;2023-03-24T15:43:31;14.90;72.40
43999;DHT22;51319;52.162;5.302;2023-03-24T15:45:59;14.80;72.00
43999;DHT22;51319;52.162;5.302;2023-03-24T15:48:38;14.80;71.80
43999;DHT22;51319;52.162;5.302;2023-03-24T15:51:07;14.70;71.30
43999;DHT22;51319;52.162;5.302;2023-03-24T15:53:43;14.60;71.40
43999;DHT22;51319;52.162;5.302;2023-03-24T15:56:15;14.50;71.50
43999;DHT22;51319;52.162;5.302;2023-03-24T16:01:19;14.50;71.80
43999;DHT22;51319;52.162;5.302;2023-03-24T16:03:49;14.60;71.80
43999;DHT22;51319;52.162;5.302;2023-03-24T16:06:26;14.70;71.60
43999;DHT22;51319;52.162;5.302;2023-03-24T16:09:06;14.50;71.50
43999;DHT22;51319;52.162;5.302;2023-03-24T16:11:35;14.50;71.20
43999;DHT22;51319;52.162;5.302;2023-03-24T16:14:22;14.50;71.50
43999;DHT22;51319;52.162;5.302;2023-03-24T16:17:08;14.50;71.70
43999;DHT22;51319;52.162;5.302;2023-03-24T16:19:37;14.50;72.00
43999;DHT22;51319;52.162;5.302;2023-03-24T16:22:10;14.50;71.70
43999;DHT22;51319;52.162;5.302;2023-03-24T16:24:38;14.50;71.70
43999;DHT22;51319;52.162;5.302;2023-03-24T16:27:05;14.30;71.90
43999;DHT22;51319;52.162;5.302;2023-03-24T16:29:32;14.30;72.40
43999;DHT22;51319;52.162;5.302;2023-03-24T16:31:59;14.30;72.60
43999;DHT22;51319;52.162;5.302;2023-03-24T16:34:26;14.30;72.80
43999;DHT22;51319;52.162;5.302;2023-03-24T16:36:54;14.20;72.70
43999;DHT22;51319;52.162;5.302;2023-03-24T16:39:27;14.10;72.80
43999;DHT22;51319;52.162;5.302;2023-03-24T16:41:54;14.00;73.40
43999;DHT22;51319;52.162;5.302;2023-03-24T16:44:22;13.80;75.10
43999;DHT22;51319;52.162;5.302;2023-03-24T16:46:51;13.60;77.10
43999;DHT22;51319;52.162;5.302;2023-03-24T16:49:20;13.40;78.30
43999;DHT22;51319;52.162;5.302;2023-03-24T16:51:49;13.30;79.40
43999;DHT22;51319;52.162;5.302;2023-03-24T16:54:18;13.10;80.00
43999;DHT22;51319;52.162;5.302;2023-03-24T16:56:46;13.00;80.60
43999;DHT22;51319;52.162;5.302;2023-03-24T16:59:13;12.80;81.20
43999;DHT22;51319;52.162;5.302;2023-03-24T17:01:43;12.70;81.90
43999;DHT22;51319;52.162;5.302;2023-03-24T17:04:14;12.70;82.50
43999;DHT22;51319;52.162;5.302;2023-03-24T17:06:45;12.60;82.90
43999;DHT22;51319;52.162;5.302;2023-03-24T17:09:15;12.60;83.50
43999;DHT22;51319;52.162;5.302;2023-03-24T17:11:48;12.50;83.80
43999;DHT22;51319;52.162;5.302;2023-03-24T17:14:16;12.40;84.20
43999;DHT22;51319;52.162;5.302;2023-03-24T17:16:44;12.40;84.50
43999;DHT22;51319;52.162;5.302;2023-03-24T17:19:13;12.40;84.70
43999;DHT22;51319;52.162;5.302;2023-03-24T17:21:46;12.30;84.80
43999;DHT22;51319;52.162;5.302;2023-03-24T17:24:15;12.30;84.80
43999;DHT22;51319;52.162;5.302;2023-03-24T17:26:42;12.30;84.50
43999;DHT22;51319;52.162;5.302;2023-03-24T17:29:11;12.30;84.50
43999;DHT22;51319;52.162;5.302;2023-03-24T17:31:39;12.20;84.60
43999;DHT22;51319;52.162;5.302;2023-03-24T17:34:12;12.10;85.10
43999;DHT22;51319;52.162;5.302;2023-03-24T17:36:43;12.00;85.30
43999;DHT22;51319;52.162;5.302;2023-03-24T17:39:15;11.90;85.50
43999;DHT22;51319;52.162;5.302;2023-03-24T17:41:42;11.80;85.80
43999;DHT22;51319;52.162;5.302;2023-03-24T17:44:11;11.80;86.20
43999;DHT22;51319;52.162;5.302;2023-03-24T17:46:38;11.80;86.70
43999;DHT22;51319;52.162;5.302;2023-03-24T17:49:05;11.80;87.10
43999;DHT22;51319;52.162;5.302;2023-03-24T17:51:32;12.00;87.10
43999;DHT22;51319;52.162;5.302;2023-03-24T17:53:59;12.00;87.10
43999;DHT22;51319;52.162;5.302;2023-03-24T17:56:27;11.90;87.40
43999;DHT22;51319;52.162;5.302;2023-03-24T17:58:54;11.80;87.80
43999;DHT22;51319;52.162;5.302;2023-03-24T18:01:24;11.80;88.40
43999;DHT22;51319;52.162;5.302;2023-03-24T18:03:55;11.70;88.90
43999;DHT22;51319;52.162;5.302;2023-03-24T18:06:23;11.70;89.50
43999;DHT22;51319;52.162;5.302;2023-03-24T18:08:53;11.70;89.40
43999;DHT22;51319;52.162;5.302;2023-03-24T18:11:20;11.70;89.70
43999;DHT22;51319;52.162;5.302;2023-03-24T18:13:47;11.70;89.90
43999;DHT22;51319;52.162;5.302;2023-03-24T18:16:16;11.60;90.00
43999;DHT22;51319;52.162;5.302;2023-03-24T18:18:48;11.40;90.30
43999;DHT22;51319;52.162;5.302;2023-03-24T18:21:20;11.40;90.70
43999;DHT22;51319;52.162;5.302;2023-03-24T18:23:51;11.40;91.00
43999;DHT22;51319;52.162;5.302;2023-03-24T18:26:18;11.50;91.20
43999;DHT22;51319;52.162;5.302;2023-03-24T18:28:46;11.50;91.30
43999;DHT22;51319;52.162;5.302;2023-03-24T18:31:18;11.50;91.40
43999;DHT22;51319;52.162;5.302;2023-03-24T18:33:46;11.40;91.80
43999;DHT22;51319;52.162;5.302;2023-03-24T18:36:15;11.30;92.10
43999;DHT22;51319;52.162;5.302;2023-03-24T18:38:43;11.30;92.40
43999;DHT22;51319;52.162;5.302;2023-03-24T18:41:12;11.20;92.80
43999;DHT22;51319;52.162;5.302;2023-03-24T18:43:41;11.20;93.30
43999;DHT22;51319;52.162;5.302;2023-03-24T18:46:16;11.20;93.70